createdAt,value
2022-12-27T00:00:28.867Z,11.33
2022-12-27T00:02:55.784Z,10.63
2022-12-27T00:05:22.591Z,10.70
2022-12-27T00:07:49.579Z,10.90
2022-12-27T00:10:16.399Z,11.17
2022-12-27T00:12:43.347Z,11.60
2022-12-27T00:15:10.477Z,11.83
2022-12-27T00:17:37.294Z,11.27
2022-12-27T00:20:11.089Z,11.70
2022-12-27T00:22:39.335Z,11.57
2022-12-27T00:25:06.551Z,11.30
2022-12-27T00:27:33.592Z,11.53
2022-12-27T00:30:01.421Z,11.50
2022-12-27T00:32:28.395Z,11.50
2022-12-27T00:34:55.450Z,11.10
2022-12-27T00:37:22.388Z,11.10
2022-12-27T00:39:49.230Z,11.40
2022-12-27T00:42:16.132Z,11.00
2022-12-27T00:44:43.461Z,11.37
2022-12-27T00:47:10.679Z,11.43
2022-12-27T00:49:37.465Z,11.10
2022-12-27T00:52:04.564Z,11.30
2022-12-27T00:54:31.399Z,10.80
2022-12-27T00:56:58.243Z,10.90
2022-12-27T00:59:25.002Z,11.10
2022-12-27T01:01:51.971Z,11.00
2022-12-27T01:04:18.823Z,11.03
2022-12-27T01:06:45.700Z,11.07
2022-12-27T01:09:12.487Z,11.13
2022-12-27T01:11:41.126Z,11.13
2022-12-27T01:14:07.917Z,10.97
2022-12-27T01:16:34.953Z,10.73
2022-12-27T01:19:01.894Z,10.90
2022-12-27T01:21:30.948Z,11.20
2022-12-27T01:23:58.459Z,11.00
2022-12-27T01:26:25.373Z,11.07
2022-12-27T01:28:53.598Z,11.17
2022-12-27T01:31:26.002Z,11.20
2022-12-27T01:33:57.764Z,11.47
2022-12-27T01:36:26.655Z,11.20
2022-12-27T01:38:53.832Z,11.13
2022-12-27T01:41:48.298Z,11.33
2022-12-27T01:44:40.250Z,10.93
2022-12-27T01:47:15.937Z,11.10
2022-12-27T01:49:53.390Z,11.40
2022-12-27T01:52:21.765Z,11.23
2022-12-27T01:54:48.606Z,11.27
2022-12-27T01:57:15.728Z,11.23
2022-12-27T01:59:42.860Z,11.03
2022-12-27T02:02:09.878Z,11.07
2022-12-27T02:04:36.846Z,11.33
2022-12-27T02:07:05.659Z,11.27
2022-12-27T02:09:52.391Z,10.90
2022-12-27T02:12:21.100Z,10.97
2022-12-27T02:14:49.349Z,11.07
2022-12-27T02:17:25.401Z,11.23
2022-12-27T02:20:10.867Z,10.67
2022-12-27T02:23:14.986Z,10.63
2022-12-27T02:26:10.985Z,11.20
2022-12-27T02:29:11.728Z,11.20
2022-12-27T02:31:47.466Z,11.00
2022-12-27T02:34:21.910Z,11.07
2022-12-27T02:36:53.110Z,11.10
2022-12-27T02:39:21.479Z,10.97
2022-12-27T02:42:08.258Z,11.00
2022-12-27T02:44:53.666Z,11.17
2022-12-27T02:47:41.934Z,11.30
2022-12-27T02:50:29.818Z,11.00
2022-12-27T02:53:23.084Z,11.00
2022-12-27T02:56:14.388Z,11.10
2022-12-27T02:58:57.165Z,11.43
2022-12-27T03:02:02.559Z,11.27
2022-12-27T03:04:57.049Z,11.10
2022-12-27T03:07:41.380Z,11.60
2022-12-27T03:10:49.000Z,11.53
2022-12-27T03:13:37.557Z,11.87
2022-12-27T03:16:19.512Z,11.20
2022-12-27T03:19:04.382Z,11.40
2022-12-27T03:22:03.826Z,11.30
2022-12-27T03:24:53.666Z,11.40
2022-12-27T03:27:28.650Z,11.43
2022-12-27T03:30:17.963Z,11.30
2022-12-27T03:33:14.922Z,11.17
2022-12-27T03:36:13.143Z,11.63
2022-12-27T03:38:50.954Z,11.30
2022-12-27T03:41:51.337Z,11.00
2022-12-27T03:44:27.194Z,11.07
2022-12-27T03:46:56.868Z,11.10
2022-12-27T03:49:30.129Z,10.87
2022-12-27T03:52:14.992Z,11.47
2022-12-27T03:54:44.006Z,11.20
2022-12-27T03:57:17.725Z,11.53
2022-12-27T03:59:44.941Z,11.47
2022-12-27T04:02:12.487Z,11.60
2022-12-27T04:04:39.453Z,11.60
2022-12-27T04:07:06.729Z,12.03
2022-12-27T04:09:52.103Z,12.00
2022-12-27T04:12:37.903Z,11.53
2022-12-27T04:15:23.659Z,11.50
2022-12-27T04:18:08.951Z,11.60
2022-12-27T04:20:54.238Z,11.57
2022-12-27T04:23:40.007Z,11.53
2022-12-27T04:26:25.268Z,11.70
2022-12-27T04:29:10.567Z,11.63
2022-12-27T04:31:55.904Z,11.60
2022-12-27T04:34:41.061Z,11.60
2022-12-27T04:37:09.429Z,11.50
2022-12-27T04:39:36.270Z,11.53
2022-12-27T04:42:21.815Z,11.20
2022-12-27T04:45:11.624Z,11.30
2022-12-27T04:48:00.434Z,11.67
2022-12-27T04:50:48.785Z,11.13
2022-12-27T04:53:39.558Z,11.03
2022-12-27T04:56:07.412Z,11.47
2022-12-27T04:58:34.248Z,11.70
2022-12-27T05:01:22.894Z,11.70
2022-12-27T05:03:52.879Z,11.87
2022-12-27T05:06:20.395Z,11.83
2022-12-27T05:09:07.252Z,12.03
2022-12-27T05:11:52.418Z,11.77
2022-12-27T05:14:19.196Z,12.80
2022-12-27T05:16:46.010Z,13.00
2022-12-27T05:19:14.723Z,13.07
2022-12-27T05:22:04.190Z,12.87
2022-12-27T05:24:50.619Z,13.10
2022-12-27T05:27:17.959Z,13.33
2022-12-27T05:29:46.013Z,13.20
2022-12-27T05:32:13.808Z,13.70
2022-12-27T05:34:41.428Z,13.97
2022-12-27T05:37:08.772Z,13.50
2022-12-27T05:39:35.811Z,13.63
2022-12-27T05:42:03.416Z,13.40
2022-12-27T05:44:30.400Z,13.60
2022-12-27T05:46:57.269Z,13.53
2022-12-27T05:49:24.151Z,13.20
2022-12-27T05:51:51.092Z,13.20
2022-12-27T05:54:17.875Z,13.50
2022-12-27T05:56:44.715Z,13.43
2022-12-27T05:59:11.478Z,13.80
2022-12-27T06:01:39.769Z,13.20
2022-12-27T06:04:06.581Z,13.80
2022-12-27T06:06:34.758Z,13.70
2022-12-27T06:09:01.507Z,13.90
2022-12-27T06:11:28.426Z,13.40
2022-12-27T06:13:55.216Z,13.60
2022-12-27T06:16:23.075Z,13.97
2022-12-27T06:18:50.261Z,13.70
2022-12-27T06:21:20.017Z,13.87
2022-12-27T06:23:47.903Z,13.57
2022-12-27T06:26:20.934Z,13.60
2022-12-27T06:28:49.670Z,13.70
2022-12-27T06:31:18.196Z,13.80
2022-12-27T06:33:45.223Z,13.53
2022-12-27T06:36:14.509Z,13.60
2022-12-27T06:38:42.462Z,13.63
2022-12-27T06:41:11.756Z,13.87
2022-12-27T06:43:40.271Z,13.50
2022-12-27T06:46:16.804Z,13.07
2022-12-27T06:48:46.149Z,14.13
2022-12-27T06:51:14.583Z,13.73
2022-12-27T06:53:41.786Z,13.47
2022-12-27T06:56:11.529Z,13.83
2022-12-27T06:58:38.921Z,14.10
2022-12-27T07:01:17.594Z,13.67
2022-12-27T07:03:48.209Z,14.00
2022-12-27T07:06:15.097Z,14.03
2022-12-27T07:08:41.956Z,13.90
2022-12-27T07:11:10.876Z,14.10
2022-12-27T07:13:44.314Z,14.10
2022-12-27T07:16:13.742Z,13.60
2022-12-27T07:18:41.209Z,14.00
2022-12-27T07:21:10.401Z,13.97
2022-12-27T07:23:38.074Z,14.40
2022-12-27T07:26:07.362Z,13.60
2022-12-27T07:28:34.371Z,13.77
2022-12-27T07:31:08.038Z,14.07
2022-12-27T07:33:36.007Z,14.30
2022-12-27T07:36:03.527Z,14.03
2022-12-27T07:38:30.363Z,14.03
2022-12-27T07:41:01.538Z,14.00
2022-12-27T07:43:33.308Z,14.27
2022-12-27T07:46:26.842Z,13.80
2022-12-27T07:48:55.559Z,14.20
2022-12-27T07:51:23.757Z,14.30
2022-12-27T07:53:51.290Z,14.00
2022-12-27T07:56:26.441Z,14.37
2022-12-27T07:58:55.750Z,14.83
2022-12-27T08:01:24.059Z,14.57
2022-12-27T08:03:51.179Z,14.80
2022-12-27T08:06:31.599Z,14.77
2022-12-27T08:09:03.269Z,14.43
2022-12-27T08:11:31.136Z,14.60
2022-12-27T08:13:57.923Z,14.37
2022-12-27T08:16:26.204Z,14.60
2022-12-27T08:18:53.263Z,13.97
2022-12-27T08:21:20.148Z,14.53
2022-12-27T08:23:46.918Z,14.20
2022-12-27T08:26:13.839Z,14.20
2022-12-27T08:28:40.695Z,14.40
2022-12-27T08:31:09.995Z,14.50
2022-12-27T08:33:37.912Z,14.50
2022-12-27T08:38:56.851Z,14.03
2022-12-27T08:41:24.094Z,14.67
2022-12-27T08:43:50.990Z,14.40
2022-12-27T08:46:19.502Z,14.30
2022-12-27T08:48:50.065Z,14.57
2022-12-27T08:51:28.455Z,14.10
2022-12-27T08:53:58.589Z,14.00
2022-12-27T08:56:25.483Z,13.57
2022-12-27T08:58:52.361Z,13.73
2022-12-27T09:01:19.461Z,13.40
2022-12-27T09:03:46.539Z,13.53
2022-12-27T09:06:16.100Z,13.90
2022-12-27T09:08:44.393Z,13.83
2022-12-27T09:11:20.459Z,13.30
2022-12-27T09:13:47.441Z,13.20
2022-12-27T09:16:17.293Z,12.90
2022-12-27T09:18:47.172Z,12.20
2022-12-27T09:21:15.295Z,12.93
2022-12-27T09:23:42.086Z,13.00
2022-12-27T09:26:14.311Z,12.97
2022-12-27T09:28:42.300Z,13.10
2022-12-27T09:31:11.044Z,12.67
2022-12-27T09:33:38.200Z,12.10
2022-12-27T09:36:16.724Z,12.40
2022-12-27T09:38:44.959Z,12.07
2022-12-27T09:45:09.908Z,12.43
2022-12-27T09:47:56.398Z,12.80
2022-12-27T09:50:30.498Z,12.80
2022-12-27T09:53:01.276Z,13.20
2022-12-27T09:55:45.997Z,12.60
2022-12-27T09:58:34.859Z,13.07
2022-12-27T10:01:02.581Z,13.00
2022-12-27T10:03:30.783Z,13.07
2022-12-27T10:06:19.151Z,12.90
2022-12-27T10:09:00.752Z,12.87
2022-12-27T10:12:09.088Z,13.67
2022-12-27T10:14:47.933Z,12.87
2022-12-27T10:17:36.055Z,12.93
2022-12-27T10:20:26.066Z,13.03
2022-12-27T10:23:01.389Z,13.13
2022-12-27T10:25:31.661Z,13.00
2022-12-27T10:28:10.529Z,13.20
2022-12-27T10:30:38.781Z,13.57
2022-12-27T10:48:10.370Z,13.47
2022-12-27T10:50:38.369Z,13.87
2022-12-27T10:53:25.073Z,13.70
2022-12-27T10:55:52.057Z,13.00
2022-12-27T10:58:38.635Z,13.73
2022-12-27T11:01:06.477Z,13.47
2022-12-27T11:03:34.334Z,13.30
2022-12-27T11:06:07.203Z,13.73
2022-12-27T11:08:34.723Z,13.13
2022-12-27T11:11:25.374Z,13.33
2022-12-27T11:14:05.694Z,13.80
2022-12-27T11:16:36.211Z,13.53
2022-12-27T11:19:04.238Z,13.50
2022-12-27T11:21:31.883Z,13.80
2022-12-27T11:24:02.510Z,13.40
2022-12-27T11:26:55.379Z,13.67
2022-12-27T11:29:25.509Z,12.63
2022-12-27T11:31:54.161Z,13.47
2022-12-27T11:34:34.204Z,13.47
2022-12-27T11:37:17.129Z,13.23
2022-12-27T11:39:48.278Z,13.40
2022-12-27T11:42:18.631Z,13.37
2022-12-27T11:44:55.874Z,13.03
2022-12-27T11:47:35.365Z,12.97
2022-12-27T11:50:20.237Z,12.83
2022-12-27T11:53:38.057Z,12.70
2022-12-27T11:56:19.845Z,12.40
2022-12-27T11:59:25.644Z,12.80
2022-12-27T12:01:58.930Z,12.97
2022-12-27T12:04:44.852Z,12.90
2022-12-27T12:07:29.177Z,13.03
2022-12-27T12:10:15.930Z,12.50
2022-12-27T12:13:03.943Z,12.17
2022-12-27T12:15:41.936Z,12.80
2022-12-27T12:18:33.403Z,12.87
2022-12-27T12:21:24.690Z,12.60
2022-12-27T12:24:20.420Z,12.20
2022-12-27T12:27:02.143Z,12.60
2022-12-27T12:29:53.513Z,12.13
2022-12-27T12:32:41.155Z,11.97
2022-12-27T12:35:13.625Z,11.60
2022-12-27T12:37:46.206Z,11.90
2022-12-27T12:40:38.562Z,12.37
2022-12-27T12:43:14.504Z,12.10
2022-12-27T12:45:57.231Z,12.37
2022-12-27T12:48:45.375Z,12.00
2022-12-27T12:51:26.567Z,12.03
2022-12-27T12:54:11.971Z,12.13
2022-12-27T12:56:57.083Z,11.87
2022-12-27T12:59:49.559Z,12.10
2022-12-27T13:02:34.616Z,12.70
2022-12-27T13:05:29.375Z,12.13
2022-12-27T13:08:17.429Z,12.20
2022-12-27T13:11:09.791Z,12.33
2022-12-27T13:14:01.160Z,12.00
2022-12-27T13:17:16.708Z,12.10
2022-12-27T13:20:44.456Z,12.50
2022-12-27T13:23:14.134Z,12.17
2022-12-27T13:26:22.160Z,12.20
2022-12-27T13:29:13.431Z,12.77
2022-12-27T13:32:05.432Z,12.37
2022-12-27T13:34:37.801Z,13.07
2022-12-27T13:37:10.546Z,12.60
2022-12-27T13:40:05.480Z,12.50
2022-12-27T13:42:44.205Z,13.10
2022-12-27T13:45:49.672Z,12.50
2022-12-27T13:48:23.728Z,12.63
2022-12-27T13:50:50.586Z,12.90
2022-12-27T13:53:51.156Z,13.10
2022-12-27T13:56:57.498Z,13.00
2022-12-27T13:59:51.072Z,13.50
2022-12-27T14:02:55.664Z,12.27
2022-12-27T14:05:47.495Z,13.40
2022-12-27T14:08:32.238Z,13.13
2022-12-27T14:11:01.316Z,12.90
2022-12-27T14:13:32.351Z,13.10
2022-12-27T14:16:16.597Z,12.80
2022-12-27T14:18:55.673Z,13.13
2022-12-27T14:21:43.343Z,13.60
2022-12-27T14:24:15.845Z,13.37
2022-12-27T14:27:07.402Z,13.30
2022-12-27T14:29:45.243Z,13.50
2022-12-27T14:32:29.767Z,12.83
2022-12-27T14:35:28.764Z,13.43
2022-12-27T14:38:14.149Z,13.40
2022-12-27T14:41:02.533Z,13.67
2022-12-27T14:44:03.039Z,13.33
2022-12-27T14:46:53.993Z,13.67
2022-12-27T14:49:33.201Z,13.77
2022-12-27T14:52:35.404Z,13.40
2022-12-27T14:55:36.703Z,13.97
2022-12-27T14:58:09.771Z,14.23
2022-12-27T15:01:18.696Z,13.90
2022-12-27T15:04:10.531Z,13.67
2022-12-27T15:06:48.570Z,13.47
2022-12-27T15:09:29.763Z,13.30
2022-12-27T15:12:11.473Z,13.27
2022-12-27T15:15:07.883Z,13.00
2022-12-27T15:17:50.613Z,13.13
2022-12-27T15:20:17.891Z,12.80
2022-12-27T15:23:11.392Z,12.80
2022-12-27T15:26:19.799Z,12.73
2022-12-27T15:28:52.530Z,12.50
2022-12-27T15:31:19.501Z,12.80
2022-12-27T15:34:23.064Z,12.70
2022-12-27T15:36:51.252Z,12.47
2022-12-27T15:39:33.429Z,12.47
2022-12-27T15:42:00.534Z,13.00
2022-12-27T15:45:02.586Z,12.80
2022-12-27T15:47:54.341Z,12.30
2022-12-27T15:50:49.247Z,12.57
2022-12-27T15:53:47.952Z,12.70
2022-12-27T15:56:48.684Z,13.00
2022-12-27T15:59:33.989Z,12.70
2022-12-27T16:02:19.390Z,12.43
2022-12-27T16:04:50.319Z,12.30
2022-12-27T16:07:35.810Z,13.00
2022-12-27T16:10:33.568Z,12.70
2022-12-27T16:13:19.562Z,13.03
2022-12-27T16:15:51.000Z,12.70
2022-12-27T16:18:23.768Z,12.13
2022-12-27T16:21:05.468Z,12.80
2022-12-27T16:23:40.071Z,12.27
2022-12-27T16:26:16.001Z,12.70
2022-12-27T16:28:56.584Z,12.37
2022-12-27T16:31:26.364Z,11.97
2022-12-27T16:33:55.815Z,12.50
2022-12-27T16:36:30.521Z,12.10
2022-12-27T16:39:19.593Z,12.00
2022-12-27T16:42:07.890Z,12.00
2022-12-27T16:44:52.187Z,12.17
2022-12-27T16:47:31.119Z,12.43
2022-12-27T16:50:06.937Z,12.40
2022-12-27T16:53:01.706Z,12.50
2022-12-27T16:55:49.912Z,12.27
2022-12-27T16:58:32.307Z,12.17
2022-12-27T17:01:01.934Z,11.87
2022-12-27T17:03:51.406Z,11.97
2022-12-27T17:06:34.676Z,12.10
2022-12-27T17:09:10.953Z,11.90
2022-12-27T17:11:52.903Z,12.27
2022-12-27T17:14:26.597Z,11.73
2022-12-27T17:17:07.264Z,11.70
2022-12-27T17:19:39.853Z,12.20
2022-12-27T17:22:14.479Z,11.57
2022-12-27T17:24:42.897Z,11.73
2022-12-27T17:27:37.383Z,12.03
2022-12-27T17:30:26.014Z,11.27
2022-12-27T17:33:19.436Z,11.63
2022-12-27T17:35:52.439Z,11.43
2022-12-27T17:38:31.370Z,11.60
2022-12-27T17:41:16.368Z,12.10
2022-12-27T17:44:22.116Z,10.93
2022-12-27T17:47:15.039Z,11.60
2022-12-27T17:49:42.658Z,11.17
2022-12-27T17:52:35.087Z,11.10
2022-12-27T17:55:39.805Z,10.63
2022-12-27T17:58:11.239Z,11.27
2022-12-27T18:00:50.822Z,11.13
2022-12-27T18:03:17.956Z,10.93
2022-12-27T18:05:46.488Z,11.83
2022-12-27T18:08:29.132Z,11.23
2022-12-27T18:11:03.844Z,11.57
2022-12-27T18:13:37.398Z,11.00
2022-12-27T18:16:16.796Z,11.30
2022-12-27T18:18:48.298Z,11.33
2022-12-27T18:21:27.398Z,11.27
2022-12-27T18:23:57.615Z,10.53
2022-12-27T18:26:35.276Z,12.00
2022-12-27T18:29:02.282Z,11.90
2022-12-27T18:31:33.580Z,11.53
2022-12-27T18:34:14.595Z,11.10
2022-12-27T18:36:59.166Z,11.40
2022-12-27T18:39:31.260Z,11.40
2022-12-27T18:42:00.491Z,11.33
2022-12-27T18:44:38.894Z,11.30
2022-12-27T18:47:06.028Z,11.40
2022-12-27T18:49:34.844Z,11.10
2022-12-27T18:52:10.831Z,12.07
2022-12-27T18:54:37.719Z,11.97
2022-12-27T18:57:06.905Z,12.00
2022-12-27T18:59:36.111Z,12.20
2022-12-27T19:02:33.244Z,12.00
2022-12-27T19:05:19.710Z,12.30
2022-12-27T19:08:01.701Z,11.33
2022-12-27T19:10:30.877Z,11.77
2022-12-27T19:12:58.193Z,11.70
2022-12-27T19:15:30.603Z,11.50
2022-12-27T19:18:04.341Z,12.00
2022-12-27T19:20:35.651Z,11.70
2022-12-27T19:23:24.033Z,12.00
2022-12-27T19:26:15.271Z,12.30
2022-12-27T19:28:57.168Z,11.63
2022-12-27T19:31:24.406Z,11.57
2022-12-27T19:34:19.045Z,11.70
2022-12-27T19:36:47.765Z,12.23
2022-12-27T19:39:28.411Z,12.57
2022-12-27T19:42:01.507Z,12.27
2022-12-27T19:44:29.247Z,12.40
2022-12-27T19:46:56.199Z,11.70
2022-12-27T19:49:41.974Z,11.60
2022-12-27T19:52:19.157Z,11.67
2022-12-27T19:54:47.161Z,11.90
2022-12-27T19:57:14.016Z,12.20
2022-12-27T19:59:41.321Z,11.53
2022-12-27T20:02:08.694Z,11.97
2022-12-27T20:04:35.857Z,11.33
2022-12-27T20:07:03.184Z,11.60
2022-12-27T20:09:30.202Z,11.30
2022-12-27T20:11:57.352Z,11.30
2022-12-27T20:14:24.207Z,11.83
2022-12-27T20:16:51.151Z,11.90
2022-12-27T20:19:20.232Z,12.13
2022-12-27T20:21:47.326Z,12.27
2022-12-27T20:24:14.783Z,12.70
2022-12-27T20:26:42.904Z,12.17
2022-12-27T20:29:11.446Z,12.07
2022-12-27T20:31:44.721Z,12.37
2022-12-27T20:34:12.510Z,12.20
2022-12-27T20:36:39.544Z,12.40
2022-12-27T20:39:07.368Z,12.90
2022-12-27T20:41:34.779Z,12.20
2022-12-27T20:44:01.776Z,12.10
2022-12-27T20:46:28.687Z,12.50
2022-12-27T20:48:56.523Z,12.50
2022-12-27T20:51:25.611Z,12.47
2022-12-27T20:53:57.559Z,12.53
2022-12-27T20:56:25.158Z,12.60
2022-12-27T20:58:52.286Z,12.70
2022-12-27T21:01:22.515Z,12.30
2022-12-27T21:03:49.805Z,12.40
2022-12-27T21:06:22.474Z,12.60
2022-12-27T21:08:56.332Z,12.20
2022-12-27T21:11:27.264Z,12.30
2022-12-27T21:13:55.014Z,12.17
2022-12-27T21:16:25.318Z,11.53
2022-12-27T21:18:53.109Z,11.27
2022-12-27T21:21:25.618Z,11.17
2022-12-27T21:23:54.588Z,11.47
2022-12-27T21:26:24.955Z,11.10
2022-12-27T21:28:51.946Z,11.77
2022-12-27T21:31:19.754Z,11.60
2022-12-27T21:33:46.922Z,11.97
2022-12-27T21:36:25.834Z,11.50
2022-12-27T21:38:54.093Z,12.30
2022-12-27T21:41:26.340Z,11.97
2022-12-27T21:43:53.518Z,12.13
2022-12-27T21:46:34.723Z,12.13
2022-12-27T21:49:06.531Z,12.43
2022-12-27T21:51:35.646Z,12.00
2022-12-27T21:54:02.983Z,12.03
2022-12-27T21:56:30.691Z,11.70
2022-12-27T21:58:59.867Z,11.37
2022-12-27T22:01:29.678Z,11.93
2022-12-27T22:03:58.205Z,11.80
2022-12-27T22:06:34.521Z,12.30
2022-12-27T22:09:06.584Z,12.20
2022-12-27T22:11:35.453Z,12.20
2022-12-27T22:14:02.441Z,12.27
2022-12-27T22:16:32.817Z,11.73
2022-12-27T22:19:00.358Z,11.77
2022-12-27T22:21:29.744Z,12.23
2022-12-27T22:23:59.129Z,12.20
2022-12-27T22:26:32.296Z,12.00
2022-12-27T22:28:59.215Z,12.27
2022-12-27T22:31:30.549Z,12.43
2022-12-27T22:33:57.701Z,11.97
2022-12-27T22:36:26.188Z,12.50
2022-12-27T22:38:55.649Z,12.40
2022-12-27T22:41:26.751Z,12.03
2022-12-27T22:43:56.450Z,12.60
2022-12-27T22:46:24.055Z,12.27
2022-12-27T22:48:52.455Z,11.63
2022-12-27T22:51:22.601Z,11.63
2022-12-27T22:53:49.857Z,12.30
2022-12-27T22:56:28.860Z,12.20
2022-12-27T22:58:56.029Z,12.10
2022-12-27T23:01:28.904Z,12.00
2022-12-27T23:04:04.808Z,12.17
2022-12-27T23:06:33.284Z,12.00
2022-12-27T23:09:00.226Z,11.90
2022-12-27T23:11:29.992Z,12.10
2022-12-27T23:14:02.081Z,12.07
2022-12-27T23:16:35.874Z,12.13
2022-12-27T23:19:02.964Z,12.53
2022-12-27T23:21:29.710Z,12.70
2022-12-27T23:23:56.569Z,12.60
2022-12-27T23:26:23.834Z,11.53
2022-12-27T23:28:52.284Z,11.87
2022-12-27T23:31:21.163Z,27.83
2022-12-27T23:33:48.579Z,11.70
2022-12-27T23:36:15.498Z,11.53
2022-12-27T23:38:43.329Z,11.90
2022-12-27T23:41:18.523Z,11.57
2022-12-27T23:43:54.238Z,11.50
2022-12-27T23:46:25.322Z,12.00
2022-12-27T23:48:52.352Z,12.40
2022-12-27T23:51:20.282Z,12.70
2022-12-27T23:53:47.358Z,12.07
2022-12-27T23:56:32.515Z,12.27
2022-12-27T23:59:01.193Z,12.27
